METAR Data
IDs: Format: Raw Decoded Include TAF

Data at: 1443 UTC 21 Apr 2021

METAR for:KCSQ (Creston Muni, IA, US)
Text:KCSQ 211435Z AUTO 33013KT 10SM OVC015 01/M00 A3021 RMK AO2
Temperature: 1.0°C ( 34°F)
Dewpoint: 0.0°C ( 32°F) [RH = 93%]
Pressure (altimeter):30.21 inches Hg (1023.1 mb)
Winds:from the NNW (330 degrees) at 15 MPH (13 knots; 6.7 m/s)
Visibility:10 or more sm (16+ km)
Ceiling:1500 feet AGL
Clouds: overcast cloud deck at 1500 feet AGL
QC Flag:automated observation with no human augmentation